Time;durP1;ratioP1;P1;durP2;ratioP2;P2;SDS_P1;SDS_P2;PMS_P1;PMS_P2;Temp;Humidity;BMP_temperature;BMP_pressure;BME280_temperature;BME280_humidity;BME280_pressure;Samples;Min_cycle;Max_cycle;Signal;HPM_P1;HPM_P2
2022/06/14 00:01:12;;;;;;;1.07;0.60;;;;;;;13.15;83.73;101593.59;5054840;28;20526;-74
2022/06/14 00:03:41;;;;;;;1.47;1.07;;;;;;;13.15;83.99;101588.16;5054902;28;20974;-74
2022/06/14 00:06:09;;;;;;;1.10;0.90;;;;;;;13.14;84.08;101603.63;5055160;28;20443;-74
2022/06/14 00:08:38;;;;;;;1.30;0.77;;;;;;;13.17;82.83;101598.72;5055098;28;20542;-74
2022/06/14 00:11:09;;;;;;;1.30;0.87;;;;;;;13.10;84.14;101596.34;5054738;28;20497;-74
2022/06/14 00:13:36;;;;;;;6.63;1.13;;;;;;;13.01;83.44;101603.56;5055045;28;20498;-74
2022/06/14 00:16:02;;;;;;;4.47;1.10;;;;;;;12.99;83.12;101603.06;5055006;28;20446;-74
2022/06/14 00:18:29;;;;;;;0.90;0.70;;;;;;;12.99;81.92;101606.56;5054587;28;20918;-74
2022/06/14 00:20:56;;;;;;;2.83;0.93;;;;;;;12.87;80.75;101606.19;5054428;28;20565;-74
2022/06/14 00:23:22;;;;;;;0.80;0.60;;;;;;;12.87;81.30;101612.44;5054870;28;20536;-74
2022/06/14 00:25:54;;;;;;;0.80;0.60;;;;;;;12.82;82.67;101604.34;5054831;28;20470;-75
2022/06/14 00:28:22;;;;;;;2.77;0.70;;;;;;;12.80;82.85;101609.28;5054478;28;20462;-74
2022/06/14 00:30:53;;;;;;;1.97;1.10;;;;;;;12.83;81.54;101603.22;5054658;28;20549;-74
2022/06/14 00:33:20;;;;;;;1.90;1.17;;;;;;;12.80;82.04;101606.56;5054403;28;20509;-74
2022/06/14 00:35:47;;;;;;;2.10;0.90;;;;;;;12.81;81.13;101610.06;5054593;28;20524;-75
2022/06/14 00:38:16;;;;;;;1.20;0.80;;;;;;;12.81;81.22;101604.63;5054586;28;20462;-74
2022/06/14 00:40:54;;;;;;;3.40;1.33;;;;;;;12.79;81.05;101609.53;5054443;28;20489;-74
2022/06/14 00:43:21;;;;;;;2.03;1.00;;;;;;;12.77;80.98;101604.41;5054469;28;20458;-74
2022/06/14 00:46:14;;;;;;;4.93;1.20;;;;;;;12.72;81.76;101612.63;5054399;28;20513;-74
2022/06/14 00:48:43;;;;;;;1.60;0.80;;;;;;;12.69;82.26;101615.09;5050679;28;20450;-74
2022/06/14 00:51:17;;;;;;;2.00;0.80;;;;;;;12.73;81.95;101613.44;5054186;28;20458;-74
2022/06/14 00:53:51;;;;;;;2.40;0.90;;;;;;;12.72;81.79;101609.91;5053694;28;20418;-74
2022/06/14 00:56:24;;;;;;;4.03;1.10;;;;;;;12.63;82.13;101606.22;5054262;28;20458;-74
2022/06/14 00:58:56;;;;;;;1.50;0.90;;;;;;;12.68;81.34;101602.63;5054161;28;20494;-74
2022/06/14 01:01:26;;;;;;;2.30;0.80;;;;;;;12.63;81.06;101608.94;5054000;28;20578;-73
2022/06/14 01:03:56;;;;;;;6.73;1.47;;;;;;;12.62;81.13;101610.03;5054077;28;20522;-75
2022/06/14 01:06:30;;;;;;;1.30;1.10;;;;;;;12.57;82.02;101607.34;5054408;28;20849;-74
2022/06/14 01:09:01;;;;;;;1.10;0.83;;;;;;;12.61;80.74;101614.63;5053764;28;20976;-75
2022/06/14 01:11:34;;;;;;;8.50;1.00;;;;;;;12.54;81.75;101618.81;5054072;28;20544;-74
2022/06/14 01:14:05;;;;;;;2.00;0.93;;;;;;;12.47;81.58;101613.72;5053938;28;20526;-74
2022/06/14 01:16:33;;;;;;;2.23;1.33;;;;;;;12.43;81.53;101617.28;5053508;28;20489;-74
2022/06/14 01:18:59;;;;;;;3.77;1.00;;;;;;;12.38;82.87;101620.88;5053534;28;20443;-74
2022/06/14 01:21:27;;;;;;;3.93;1.17;;;;;;;12.40;82.41;101618.69;5053284;28;20530;-74
2022/06/14 01:23:55;;;;;;;0.80;0.60;;;;;;;12.38;82.38;101616.25;5053734;28;20526;-74
2022/06/14 01:26:26;;;;;;;1.87;0.83;;;;;;;12.35;81.99;101613.28;5053604;28;20529;-74
2022/06/14 01:28:56;;;;;;;1.20;0.80;;;;;;;12.35;82.04;101616.84;5053882;28;20521;-74
2022/06/14 01:31:24;;;;;;;1.20;0.80;;;;;;;12.31;81.81;101615.00;5053207;28;20493;-74
2022/06/14 01:33:56;;;;;;;2.60;1.00;;;;;;;12.21;81.56;101621.31;5053415;28;20474;-74
2022/06/14 01:36:26;;;;;;;5.37;1.10;;;;;;;12.20;81.42;101622.41;5053641;28;20425;-74
2022/06/14 01:38:55;;;;;;;1.90;0.97;;;;;;;12.08;81.17;101616.53;5053813;28;20858;-74
2022/06/14 01:41:33;;;;;;;1.30;0.97;;;;;;;11.99;80.87;101618.25;5052960;28;21014;-74
2022/06/14 01:44:14;;;;;;;1.50;1.00;;;;;;;12.07;82.64;101628.50;5053453;28;20446;-75
2022/06/14 01:46:47;;;;;;;2.07;1.20;;;;;;;12.08;83.14;101621.97;5053425;28;20458;-76
2022/06/14 01:52:19;;;;;;;10.90;1.40;;;;;;;12.02;83.82;101623.13;5053233;28;20568;-76
2022/06/14 01:54:57;;;;;;;2.00;0.70;;;;;;;11.97;83.53;101620.47;5053281;28;20430;-76
2022/06/14 01:57:31;;;;;;;2.23;1.10;;;;;;;11.91;84.38;101616.13;5053256;28;20458;-76
2022/06/14 02:00:06;;;;;;;1.80;0.80;;;;;;;11.93;84.27;101622.91;5052914;28;20425;-75
2022/06/14 02:02:39;;;;;;;1.33;0.97;;;;;;;11.92;84.61;101620.50;5053189;28;20896;-75
2022/06/14 02:05:14;;;;;;;0.80;0.60;;;;;;;11.96;84.03;101625.06;5052976;28;20462;-75
2022/06/14 02:07:50;;;;;;;0.90;0.60;;;;;;;11.92;84.24;101629.44;5052812;28;20517;-75
2022/06/14 02:10:26;;;;;;;4.97;1.13;;;;;;;11.88;84.69;101635.75;5053096;28;20422;-75
2022/06/14 02:13:01;;;;;;;1.97;0.93;;;;;;;11.82;84.41;101629.47;5053078;28;20423;-75
2022/06/14 02:15:34;;;;;;;1.13;0.80;;;;;;;11.80;83.87;101629.78;5052779;28;20863;-75
2022/06/14 02:18:08;;;;;;;1.80;0.97;;;;;;;11.74;82.83;101639.06;5053106;28;20458;-74
2022/06/14 02:20:41;;;;;;;1.73;0.80;;;;;;;11.69;84.01;101633.69;5052543;28;20914;-74
2022/06/14 02:23:10;;;;;;;1.40;0.80;;;;;;;11.70;84.94;101637.19;5052920;28;20470;-75
2022/06/14 02:25:44;;;;;;;4.53;0.90;;;;;;;11.72;85.74;101638.53;5052958;28;20869;-74
2022/06/14 02:28:17;;;;;;;1.00;0.70;;;;;;;11.72;85.41;101645.84;5052933;28;20430;-74
2022/06/14 02:30:47;;;;;;;4.83;1.20;;;;;;;11.70;85.71;101643.44;5052850;28;20470;-74
2022/06/14 02:33:21;;;;;;;4.83;1.37;;;;;;;11.67;86.47;101644.00;5052887;28;20447;-75
2022/06/14 02:35:54;;;;;;;1.37;1.00;;;;;;;11.67;86.76;101640.47;5052610;28;20509;-74
2022/06/14 02:38:26;;;;;;;1.60;0.90;;;;;;;11.66;86.38;101641.56;5052901;28;20794;-74
2022/06/14 02:41:01;;;;;;;0.97;0.73;;;;;;;11.67;86.21;101651.31;5052506;28;21030;-74
2022/06/14 02:43:32;;;;;;;1.90;1.17;;;;;;;11.66;86.12;101647.81;5052375;28;20523;-74
2022/06/14 02:46:05;;;;;;;4.83;0.90;;;;;;;11.65;86.45;101643.47;5052864;28;20450;-74
2022/06/14 02:48:39;;;;;;;5.90;1.37;;;;;;;11.63;86.41;101643.72;5054112;28;20429;-74
2022/06/14 02:51:09;;;;;;;2.17;1.07;;;;;;;11.61;87.25;101645.94;5052606;28;20489;-74
2022/06/14 02:53:40;;;;;;;6.73;1.17;;;;;;;11.64;87.26;101641.81;5052575;28;20477;-74
2022/06/14 02:56:15;;;;;;;1.70;1.30;;;;;;;11.68;86.36;101647.50;5052724;28;20438;-74
2022/06/14 02:58:49;;;;;;;1.70;1.13;;;;;;;11.59;86.41;101644.59;5052639;28;20461;-74
2022/06/14 03:01:21;;;;;;;1.70;1.00;;;;;;;11.58;87.39;101646.50;5052516;28;20504;-73
2022/06/14 03:03:52;;;;;;;1.23;0.77;;;;;;;11.60;87.09;101643.50;5052577;28;20497;-74
2022/06/14 03:06:28;;;;;;;1.40;0.90;;;;;;;11.60;87.35;101641.59;5052297;28;20924;-72
2022/06/14 03:09:00;;;;;;;2.23;1.20;;;;;;;11.61;87.67;101651.34;5052577;28;20483;-72
2022/06/14 03:11:40;;;;;;;7.73;1.63;;;;;;;11.60;87.30;101646.22;5052150;28;20512;-74
2022/06/14 03:14:15;;;;;;;4.20;1.57;;;;;;;11.61;87.04;101647.84;5052240;28;20473;-74
2022/06/14 03:16:53;;;;;;;11.40;1.30;;;;;;;11.59;87.14;101647.28;5052478;28;20469;-73
2022/06/14 03:19:26;;;;;;;14.07;1.47;;;;;;;11.67;86.65;101654.03;5056031;28;20458;-74
2022/06/14 03:22:01;;;;;;;1.83;1.00;;;;;;;11.66;86.61;101657.84;5055451;28;20529;-74
2022/06/14 03:24:33;;;;;;;4.17;1.23;;;;;;;11.74;86.82;101654.53;5055997;28;20441;-74
2022/06/14 03:27:10;;;;;;;1.20;0.90;;;;;;;11.73;86.81;101653.72;5055704;28;20993;-74
2022/06/14 03:29:44;;;;;;;2.17;1.00;;;;;;;11.74;86.53;101663.50;5055912;28;20434;-74
2022/06/14 03:32:17;;;;;;;3.27;1.27;;;;;;;11.72;86.75;101662.13;5055853;28;20493;-74
2022/06/14 03:34:48;;;;;;;4.40;1.40;;;;;;;11.71;87.23;101666.75;5055848;28;20506;-74
2022/06/14 03:37:14;;;;;;;1.00;0.90;;;;;;;11.72;87.39;101662.94;5055512;28;20922;-74
2022/06/14 03:39:47;;;;;;;2.57;1.20;;;;;;;11.75;87.68;101662.38;5055711;28;20872;-74
2022/06/14 03:42:16;;;;;;;9.73;1.40;;;;;;;11.82;87.12;101670.19;5055262;28;21041;-74
2022/06/14 03:44:43;;;;;;;1.93;1.10;;;;;;;11.81;88.04;101671.31;5055595;28;20474;-74
2022/06/14 03:47:21;;;;;;;2.03;1.33;;;;;;;11.88;87.47;101668.31;5055246;28;20958;-74
2022/06/14 03:49:53;;;;;;;4.77;1.00;;;;;;;11.91;86.75;101660.41;5055553;28;20426;-74
2022/06/14 03:52:34;;;;;;;3.57;0.97;;;;;;;11.94;86.81;101669.88;5055403;28;20541;-74
2022/06/14 03:55:12;;;;;;;0.90;0.60;;;;;;;11.93;87.01;101665.56;5055565;28;20433;-75
2022/06/14 03:57:54;;;;;;;2.70;1.33;;;;;;;11.97;87.09;101670.13;5055434;28;20469;-74
2022/06/14 04:00:32;;;;;;;14.73;1.67;;;;;;;11.97;86.33;101672.84;5055262;28;20468;-76
2022/06/14 04:03:19;;;;;;;4.73;1.03;;;;;;;12.00;86.40;101676.91;5054957;28;20549;-73
2022/06/14 04:05:56;;;;;;;2.73;1.17;;;;;;;12.02;85.79;101680.97;5055290;28;20856;-73
2022/06/14 04:08:36;;;;;;;1.33;1.00;;;;;;;12.02;86.32;101680.97;5055204;28;20454;-72
2022/06/14 04:11:15;;;;;;;2.20;1.20;;;;;;;12.09;86.11;101672.50;5055115;28;20462;-72
2022/06/14 04:13:48;;;;;;;1.60;1.20;;;;;;;12.10;86.46;101680.34;5054880;28;20454;-72
2022/06/14 04:16:23;;;;;;;1.90;1.03;;;;;;;12.09;86.40;101686.06;5055080;28;20454;-72
2022/06/14 04:18:57;;;;;;;5.27;1.50;;;;;;;12.12;85.76;101685.50;5055026;28;20506;-72
2022/06/14 04:21:34;;;;;;;1.60;1.00;;;;;;;12.12;85.49;101688.19;5054704;28;20483;-72
2022/06/14 04:24:10;;;;;;;2.70;1.13;;;;;;;12.07;85.66;101686.34;5054831;28;20504;-72
2022/06/14 04:26:44;;;;;;;1.70;1.03;;;;;;;12.07;86.34;101680.09;5054808;28;20450;-72
2022/06/14 04:29:21;;;;;;;1.53;1.33;;;;;;;12.06;86.34;101678.50;5054802;28;20454;-72
2022/06/14 04:31:51;;;;;;;2.90;1.30;;;;;;;12.19;86.13;101683.28;5054392;28;20469;-72
2022/06/14 04:34:26;;;;;;;2.47;1.37;;;;;;;12.28;84.67;101684.28;5054629;28;20859;-72
2022/06/14 04:37:00;;;;;;;5.33;1.20;;;;;;;12.30;85.28;101686.69;5054665;28;20458;-72
2022/06/14 04:39:36;;;;;;;5.43;2.30;;;;;;;12.34;84.30;101690.47;5054611;28;20455;-72
2022/06/14 04:42:09;;;;;;;1.67;1.10;;;;;;;12.34;84.59;101687.75;5054440;28;20564;-73
2022/06/14 04:44:44;;;;;;;3.43;1.13;;;;;;;12.41;84.90;101687.44;5054473;28;20431;-73
2022/06/14 04:47:15;;;;;;;3.30;0.97;;;;;;;12.43;84.22;101683.31;5054320;28;20469;-73
2022/06/14 04:49:47;;;;;;;4.30;1.40;;;;;;;12.43;84.45;101677.06;5054103;28;20426;-72
2022/06/14 04:52:20;;;;;;;3.90;1.87;;;;;;;12.46;84.08;101682.75;5053944;28;20504;-73
2022/06/14 04:54:52;;;;;;;5.17;1.47;;;;;;;12.57;83.97;101683.44;5053962;28;20478;-73
2022/06/14 04:57:25;;;;;;;4.80;1.17;;;;;;;12.62;83.59;101681.50;5054220;28;20458;-73
2022/06/14 04:59:56;;;;;;;1.77;0.97;;;;;;;12.66;84.02;101679.03;5053952;28;20423;-73
2022/06/14 05:02:26;;;;;;;1.70;0.93;;;;;;;12.74;84.02;101691.16;5053702;28;20501;-73
2022/06/14 05:04:57;;;;;;;6.87;1.10;;;;;;;12.81;84.13;101689.72;5054151;28;20427;-73
2022/06/14 05:07:30;;;;;;;1.30;0.80;;;;;;;12.85;83.58;101688.06;5054060;28;20434;-73
2022/06/14 05:10:02;;;;;;;1.70;1.10;;;;;;;12.91;83.65;101686.09;5053966;28;20427;-73
2022/06/14 05:12:34;;;;;;;3.23;1.53;;;;;;;12.93;83.42;101685.81;5054143;28;20524;-73
2022/06/14 05:15:06;;;;;;;2.33;1.00;;;;;;;12.95;83.59;101680.88;5053653;28;21001;-72
2022/06/14 05:17:38;;;;;;;1.83;1.17;;;;;;;12.98;84.43;101685.75;5053631;28;20458;-73
2022/06/14 05:20:11;;;;;;;3.60;1.30;;;;;;;12.94;84.15;101688.22;5053462;28;20426;-73
2022/06/14 05:22:46;;;;;;;1.10;0.83;;;;;;;13.06;83.29;101683.19;5053722;28;20561;-73
2022/06/14 05:25:14;;;;;;;1.67;1.03;;;;;;;13.06;83.40;101680.47;5053851;28;20509;-75
2022/06/14 05:27:50;;;;;;;2.63;1.33;;;;;;;13.23;82.97;101685.44;5053723;28;20489;-75
2022/06/14 05:30:35;;;;;;;2.50;1.13;;;;;;;13.31;82.69;101682.09;5053249;28;20923;-76
2022/06/14 05:33:11;;;;;;;1.33;0.77;;;;;;;13.48;81.69;101678.06;5053637;28;20434;-75
2022/06/14 05:35:41;;;;;;;2.20;1.00;;;;;;;13.50;80.93;101673.13;5053868;28;20458;-75
2022/06/14 05:38:25;;;;;;;2.10;1.50;;;;;;;13.58;80.60;101680.63;5053406;28;20521;-76
2022/06/14 05:40:57;;;;;;;6.40;1.67;;;;;;;13.68;80.11;101674.22;5052993;28;20503;-72
2022/06/14 05:43:30;;;;;;;2.20;1.20;;;;;;;13.80;79.30;101683.56;5053428;28;20699;-72
2022/06/14 05:46:04;;;;;;;2.30;1.20;;;;;;;13.87;80.09;101683.22;5053452;28;20462;-72
2022/06/14 05:48:34;;;;;;;2.13;1.00;;;;;;;13.97;80.40;101690.41;5053071;28;20955;-72
2022/06/14 05:51:05;;;;;;;1.47;0.90;;;;;;;14.09;80.22;101682.59;5053013;28;20975;-74
2022/06/14 05:53:37;;;;;;;2.53;0.93;;;;;;;14.20;78.55;101697.66;5053352;28;20454;-73
2022/06/14 05:56:11;;;;;;;2.03;1.10;;;;;;;14.26;78.12;101692.94;5053252;28;20462;-73
2022/06/14 05:58:43;;;;;;;2.20;1.00;;;;;;;14.34;77.42;101695.78;5053163;28;20480;-74
2022/06/14 06:01:16;;;;;;;3.70;1.40;;;;;;;14.34;77.77;101698.53;5053308;28;20470;-72
2022/06/14 06:03:46;;;;;;;5.67;1.20;;;;;;;14.42;78.54;101702.47;5053142;28;20468;-74
2022/06/14 06:06:16;;;;;;;1.80;0.93;;;;;;;14.42;77.40;101701.66;5053065;28;20504;-72
2022/06/14 06:08:48;;;;;;;6.70;1.10;;;;;;;14.46;78.44;101713.56;5053088;28;20470;-75
2022/06/14 06:11:19;;;;;;;3.23;1.20;;;;;;;14.62;74.54;101709.50;5053129;28;20501;-75
2022/06/14 06:13:50;;;;;;;2.83;1.43;;;;;;;14.59;75.58;101716.34;5053116;28;20544;-74
2022/06/14 06:16:23;;;;;;;3.80;1.17;;;;;;;14.56;75.20;101716.94;5053114;28;20517;-75
2022/06/14 06:18:55;;;;;;;2.13;1.00;;;;;;;14.52;75.38;101710.50;5053143;28;20491;-74
2022/06/14 06:21:29;;;;;;;2.00;1.03;;;;;;;14.46;76.33;101713.56;5052821;28;20482;-74
2022/06/14 06:24:00;;;;;;;15.03;1.37;;;;;;;14.50;76.13;101715.44;5052580;28;20822;-74
2022/06/14 06:26:31;;;;;;;4.50;1.20;;;;;;;14.53;76.47;101722.22;5052687;28;20473;-74
2022/06/14 06:29:10;;;;;;;10.23;1.73;;;;;;;14.52;76.58;101726.88;5053004;28;20462;-75
2022/06/14 06:31:39;;;;;;;2.90;0.70;;;;;;;14.67;76.38;101727.69;5052813;28;20500;-74
2022/06/14 06:34:11;;;;;;;2.00;1.00;;;;;;;14.70;73.94;101727.06;5052893;28;20446;-74
2022/06/14 06:36:49;;;;;;;2.80;1.33;;;;;;;14.79;74.25;101728.84;5053032;28;20427;-73
2022/06/14 06:39:30;;;;;;;5.63;1.17;;;;;;;14.89;71.35;101725.91;5052637;28;20497;-73
2022/06/14 06:42:04;;;;;;;12.73;1.67;;;;;;;14.96;71.32;101741.06;5052639;28;20486;-74
2022/06/14 06:44:37;;;;;;;7.37;1.07;;;;;;;14.98;70.83;101744.31;5052396;28;21006;-74
2022/06/14 06:47:11;;;;;;;3.20;1.10;;;;;;;15.17;70.93;101741.47;5052768;28;20855;-74
2022/06/14 06:49:48;;;;;;;2.17;0.80;;;;;;;15.27;70.89;101741.25;5052759;28;20457;-74
2022/06/14 06:52:20;;;;;;;3.67;1.00;;;;;;;15.36;69.69;101734.81;5053518;28;20461;-74
2022/06/14 06:54:54;;;;;;;1.17;0.90;;;;;;;15.45;69.26;101745.81;5056580;28;20852;-75
2022/06/14 06:57:23;;;;;;;1.97;0.90;;;;;;;15.43;67.84;101739.03;5056549;28;20457;-74
2022/06/14 06:59:52;;;;;;;1.87;1.07;;;;;;;15.59;68.31;101743.88;5056472;28;20474;-74
2022/06/14 07:02:27;;;;;;;4.00;1.17;;;;;;;15.62;67.42;101739.69;5056019;28;20486;-73
2022/06/14 07:05:05;;;;;;;7.57;1.10;;;;;;;15.74;68.52;101742.75;5056310;28;20519;-73
2022/06/14 07:07:41;;;;;;;12.53;1.33;;;;;;;15.93;66.79;101748.06;5056383;28;20430;-73
2022/06/14 07:10:17;;;;;;;5.00;1.17;;;;;;;16.02;65.24;101746.19;5056302;28;20479;-73
2022/06/14 07:12:48;;;;;;;2.63;1.07;;;;;;;15.97;66.04;101748.25;5056104;28;20466;-72
2022/06/14 07:15:19;;;;;;;10.93;1.10;;;;;;;16.07;65.52;101748.00;5056471;28;20487;-73
2022/06/14 07:17:54;;;;;;;2.37;1.00;;;;;;;16.12;64.35;101747.91;5056196;28;20770;-73
2022/06/14 07:20:32;;;;;;;3.07;0.97;;;;;;;16.18;64.97;101757.59;5055892;28;20430;-72
2022/06/14 07:23:10;;;;;;;1.17;0.50;;;;;;;16.22;63.69;101757.78;5056051;28;20422;-72
2022/06/14 07:25:42;;;;;;;1.97;0.87;;;;;;;16.14;64.21;101753.84;5056083;28;20430;-73
2022/06/14 07:28:15;;;;;;;2.07;0.73;;;;;;;16.31;63.94;101758.66;5055695;28;20472;-73
2022/06/14 07:30:46;;;;;;;8.90;1.20;;;;;;;16.36;63.33;101755.78;5055611;28;20473;-73
2022/06/14 07:33:16;;;;;;;7.93;1.03;;;;;;;16.53;63.43;101755.09;5055960;28;20425;-73
2022/06/14 07:35:46;;;;;;;2.20;0.83;;;;;;;16.64;63.32;101761.91;5056052;28;20438;-73
2022/06/14 07:38:20;;;;;;;1.30;0.70;;;;;;;16.61;63.18;101765.28;5055940;28;20476;-73
2022/06/14 07:40:53;;;;;;;1.30;0.70;;;;;;;16.28;63.42;101760.06;5055579;28;20466;-73
2022/06/14 07:43:25;;;;;;;5.83;1.27;;;;;;;16.15;64.48;101752.72;5055728;28;20461;-74
2022/06/14 07:45:52;;;;;;;2.70;1.47;;;;;;;16.17;66.27;101758.72;5055790;28;20556;-73
2022/06/14 07:48:27;;;;;;;1.57;0.67;;;;;;;16.30;65.34;101759.78;5055260;28;20951;-72
2022/06/14 07:51:00;;;;;;;3.00;0.60;;;;;;;16.46;65.52;101755.53;5055516;28;20488;-74
2022/06/14 07:53:34;;;;;;;6.60;0.90;;;;;;;16.29;64.21;101758.97;5055522;28;20425;-72
2022/06/14 07:56:07;;;;;;;3.30;0.90;;;;;;;16.29;64.13;101753.50;5055345;28;20464;-74
2022/06/14 07:58:40;;;;;;;3.83;0.93;;;;;;;16.34;63.10;101747.91;5055490;28;20462;-74
2022/06/14 08:01:14;;;;;;;4.83;1.23;;;;;;;16.43;61.98;101744.44;5055536;28;20486;-73
2022/06/14 08:03:47;;;;;;;1.50;0.73;;;;;;;16.49;61.86;101743.97;5054668;28;20999;-76
2022/06/14 08:06:17;;;;;;;1.43;0.83;;;;;;;16.54;60.04;101749.31;5055289;28;20850;-75
2022/06/14 08:08:48;;;;;;;3.67;1.07;;;;;;;16.57;59.81;101750.63;5055207;28;20481;-76
2022/06/14 08:11:19;;;;;;;3.80;0.87;;;;;;;16.54;60.10;101748.50;5054804;28;20900;-76
2022/06/14 08:13:52;;;;;;;0.70;0.40;;;;;;;16.71;60.74;101740.41;5054957;28;20499;-77
2022/06/14 08:16:19;;;;;;;6.63;1.07;;;;;;;16.99;60.99;101745.69;5055121;28;20538;-77
2022/06/14 08:18:53;;;;;;;4.63;1.10;;;;;;;17.09;57.80;101740.78;5055351;28;20474;-78
2022/06/14 08:21:26;;;;;;;1.83;1.10;;;;;;;17.07;57.28;101751.22;5054644;28;20478;-76
2022/06/14 08:23:58;;;;;;;1.07;0.50;;;;;;;17.09;59.10;101748.19;5054962;28;20498;-77
2022/06/14 08:26:33;;;;;;;0.80;0.60;;;;;;;17.05;57.24;101747.19;5054397;28;20458;-76
2022/06/14 08:29:06;;;;;;;3.23;1.00;;;;;;;16.89;58.88;101741.31;5055048;28;20433;-76
2022/06/14 08:31:40;;;;;;;1.20;0.73;;;;;;;16.95;59.34;101740.03;5054639;28;20490;-76
2022/06/14 08:34:15;;;;;;;3.43;0.93;;;;;;;16.95;56.04;101745.53;5054877;28;20429;-77
2022/06/14 08:36:50;;;;;;;1.47;1.00;;;;;;;16.86;58.03;101734.53;5054400;28;20425;-77
2022/06/14 08:39:22;;;;;;;0.80;0.50;;;;;;;16.76;54.71;101737.56;5055001;28;20434;-76
2022/06/14 08:42:10;;;;;;;3.23;0.90;;;;;;;16.75;55.10;101738.69;5054230;28;20467;-77
2022/06/14 08:44:43;;;;;;;2.90;0.77;;;;;;;17.04;55.18;101737.34;5054641;28;20474;-77
2022/06/14 08:47:38;;;;;;;2.93;0.67;;;;;;;17.16;54.30;101726.59;5054227;28;20796;-76
2022/06/14 08:50:22;;;;;;;2.40;0.77;;;;;;;17.45;53.12;101741.69;5055258;28;20442;-77
2022/06/14 08:53:42;;;;;;;4.80;1.00;;;;;;;17.27;53.39;101741.63;5054599;28;20465;-77
2022/06/14 08:56:19;;;;;;;2.60;0.73;;;;;;;17.71;51.90;101734.31;5054695;28;20508;-77
2022/06/14 08:59:19;;;;;;;0.77;0.50;;;;;;;17.76;50.38;101739.66;5054249;28;20916;-77
2022/06/14 09:02:06;;;;;;;4.57;1.03;;;;;;;17.69;51.37;101728.31;5054061;28;20499;-77
2022/06/14 09:04:57;;;;;;;2.50;0.80;;;;;;;17.93;50.62;101746.25;5054567;28;20855;-76
2022/06/14 09:07:51;;;;;;;0.70;0.50;;;;;;;18.03;50.08;101744.00;5054151;28;20492;-77
2022/06/14 09:10:53;;;;;;;1.00;0.67;;;;;;;17.97;49.82;101744.47;5053689;28;20904;-76
2022/06/14 09:13:55;;;;;;;2.93;0.50;;;;;;;17.96;50.76;101751.09;5053993;28;20442;-76
2022/06/14 09:16:49;;;;;;;3.13;0.90;;;;;;;17.96;51.70;101751.09;5053313;28;20457;-76
2022/06/14 09:19:28;;;;;;;1.97;0.57;;;;;;;17.96;51.98;101742.88;5054126;28;20484;-77
2022/06/14 09:22:09;;;;;;;4.83;0.67;;;;;;;18.03;51.73;101746.75;5053752;28;20477;-76
2022/06/14 09:25:09;;;;;;;2.93;0.50;;;;;;;18.17;52.59;101746.59;5053482;28;20553;-76
2022/06/14 09:28:00;;;;;;;0.70;0.40;;;;;;;18.34;51.13;101738.34;5009885;28;20450;-74
2022/06/14 09:30:48;;;;;;;3.10;0.70;;;;;;;18.35;51.00;101744.63;5053706;28;20426;-76
2022/06/14 09:33:40;;;;;;;2.83;0.50;;;;;;;18.28;50.02;101758.03;5053759;28;20516;-76
2022/06/14 09:36:44;;;;;;;1.27;0.67;;;;;;;18.00;51.06;101766.59;5053630;28;20423;-74
2022/06/14 09:39:52;;;;;;;1.10;0.87;;;;;;;17.85;51.63;101761.59;5040539;28;20809;-76
2022/06/14 09:42:38;;;;;;;3.60;0.93;;;;;;;17.56;52.88;101756.66;5053464;28;20466;-76
2022/06/14 09:45:41;;;;;;;3.73;0.70;;;;;;;17.65;54.18;101758.28;5053361;28;20500;-76
2022/06/14 09:48:36;;;;;;;2.60;0.80;;;;;;;17.73;52.91;101753.16;5053173;28;20457;-76
2022/06/14 09:51:46;;;;;;;0.63;0.50;;;;;;;17.92;52.90;101755.63;5053034;28;21037;-76
2022/06/14 09:54:53;;;;;;;0.97;0.60;;;;;;;18.02;52.61;101760.81;5053369;28;20506;-76
2022/06/14 09:57:40;;;;;;;1.43;0.70;;;;;;;18.26;53.85;101750.13;5052997;28;20955;-76
2022/06/14 10:00:27;;;;;;;3.37;0.70;;;;;;;18.43;49.42;101745.75;5053242;28;20435;-75
2022/06/14 10:03:39;;;;;;;1.73;0.70;;;;;;;18.52;50.41;101749.28;5052957;28;20896;-76
2022/06/14 10:06:39;;;;;;;2.93;0.60;;;;;;;18.87;49.97;101745.34;5016026;28;20525;-75
2022/06/14 10:09:24;;;;;;;1.20;0.70;;;;;;;19.14;49.74;101746.03;5019801;28;20451;-75
2022/06/14 10:12:11;;;;;;;2.33;0.70;;;;;;;19.08;50.08;101752.81;5053105;28;20466;-75
2022/06/14 10:14:51;;;;;;;3.17;1.23;;;;;;;19.11;50.53;101741.19;5052791;28;20426;-75
2022/06/14 10:17:50;;;;;;;2.03;0.60;;;;;;;19.17;49.43;101750.88;5052708;28;20430;-75
2022/06/14 10:20:52;;;;;;;1.70;1.00;;;;;;;18.86;49.01;101751.16;5052787;28;20426;-75
2022/06/14 10:23:55;;;;;;;3.13;0.87;;;;;;;18.84;50.70;101751.47;5052988;28;20476;-75
2022/06/14 10:29:38;;;;;;;1.37;0.90;;;;;;;19.01;49.54;101742.38;5056960;28;20410;-72
2022/06/14 10:32:53;;;;;;;1.43;0.77;;;;;;;18.96;49.09;101744.50;5057200;28;20552;-72
2022/06/14 10:35:30;;;;;;;1.23;0.80;;;;;;;19.02;48.86;101741.22;4976027;28;20450;-75
2022/06/14 10:38:29;;;;;;;3.13;0.83;;;;;;;19.16;48.93;101739.06;5052984;28;20485;-72
2022/06/14 10:41:01;;;;;;;1.20;0.77;;;;;;;19.51;50.96;101732.56;5056954;28;20523;-74
2022/06/14 10:43:38;;;;;;;1.43;0.60;;;;;;;19.83;49.11;101742.88;5055870;28;20960;-73
2022/06/14 10:46:09;;;;;;;2.80;0.80;;;;;;;19.86;48.34;101739.44;5055952;28;20587;-73
2022/06/14 10:48:58;;;;;;;3.43;0.87;;;;;;;19.72;46.41;101744.41;5055998;28;20441;-73
2022/06/14 10:51:46;;;;;;;1.83;0.90;;;;;;;19.38;47.26;101745.41;5056099;28;20491;-73
2022/06/14 10:54:21;;;;;;;1.00;0.50;;;;;;;19.11;49.98;101741.19;5057224;28;20450;-73
2022/06/14 10:57:13;;;;;;;1.63;0.60;;;;;;;19.05;49.41;101737.03;5056597;28;20438;-74
2022/06/14 11:00:09;;;;;;;3.00;0.67;;;;;;;19.08;48.25;101741.84;5055626;28;20537;-75
2022/06/14 11:02:57;;;;;;;1.10;0.70;;;;;;;19.09;48.90;101752.50;5055823;28;20429;-73
2022/06/14 11:05:33;;;;;;;2.03;0.73;;;;;;;18.92;47.72;101740.78;5055727;28;20462;-73
2022/06/14 11:08:20;;;;;;;5.30;0.60;;;;;;;19.09;47.67;101743.47;5056038;28;20438;-73
2022/06/14 11:11:10;;;;;;;1.97;0.53;;;;;;;19.22;49.09;101742.44;5055272;28;20497;-73
2022/06/14 11:13:48;;;;;;;1.20;0.60;;;;;;;19.33;47.86;101738.16;5055366;28;20462;-73
2022/06/14 11:16:24;;;;;;;1.30;0.70;;;;;;;19.50;48.57;101747.44;5055697;28;20450;-73
2022/06/14 11:19:12;;;;;;;1.30;0.80;;;;;;;19.53;48.57;101741.28;5055370;28;20509;-71
2022/06/14 11:21:59;;;;;;;1.80;0.70;;;;;;;19.65;47.86;101744.13;5054986;28;20982;-75
2022/06/14 11:24:36;;;;;;;4.73;0.70;;;;;;;19.88;48.07;101744.63;5055146;28;20501;-75
2022/06/14 11:27:11;;;;;;;2.60;1.00;;;;;;;20.02;47.65;101745.16;5055550;28;20458;-75
2022/06/14 11:29:46;;;;;;;1.10;0.63;;;;;;;20.24;44.47;101732.97;5055460;28;20504;-75
2022/06/14 11:32:21;;;;;;;0.97;0.60;;;;;;;20.25;44.91;101742.84;5055057;28;20957;-74
2022/06/14 11:34:57;;;;;;;1.73;0.90;;;;;;;20.45;44.72;101732.09;5055485;28;20511;-76
2022/06/14 11:37:43;;;;;;;0.73;0.50;;;;;;;20.32;44.84;101743.09;5054725;28;20924;-75
2022/06/14 11:40:17;;;;;;;1.10;0.70;;;;;;;20.27;45.08;101737.78;5055175;28;20458;-76
2022/06/14 11:42:57;;;;;;;1.20;0.53;;;;;;;20.14;45.65;101733.38;5055083;28;20501;-75
2022/06/14 11:45:38;;;;;;;2.40;0.60;;;;;;;19.85;46.80;101742.53;5055069;28;20861;-75
2022/06/14 11:48:11;;;;;;;2.50;0.60;;;;;;;19.84;46.56;101732.69;5054808;28;20908;-76
2022/06/14 11:50:47;;;;;;;3.53;0.60;;;;;;;19.80;46.57;101729.00;5054914;28;20461;-75
2022/06/14 11:53:41;;;;;;;1.70;0.70;;;;;;;20.00;45.69;101733.66;5054670;28;20465;-75
2022/06/14 11:56:17;;;;;;;1.10;0.60;;;;;;;20.00;46.11;101727.34;5054975;28;20458;-74
2022/06/14 11:59:04;;;;;;;1.10;0.60;;;;;;;20.63;45.57;101728.06;5054909;28;20426;-76
2022/06/14 12:01:39;;;;;;;1.67;0.73;;;;;;;21.39;42.49;101737.66;5054754;28;20493;-75
2022/06/14 12:04:23;;;;;;;0.93;0.60;;;;;;;21.92;41.00;101744.78;5054554;28;20517;-76
2022/06/14 12:06:56;;;;;;;0.97;0.67;;;;;;;21.41;41.22;101733.38;5054681;28;20517;-73
2022/06/14 12:09:57;;;;;;;0.87;0.57;;;;;;;21.59;42.18;101728.41;5054702;28;20437;-76
2022/06/14 12:12:34;;;;;;;12.43;1.10;;;;;;;21.96;41.34;101727.50;5054282;28;20490;-75
2022/06/14 12:15:03;;;;;;;8.20;0.77;;;;;;;22.53;40.59;101724.38;5054682;28;20493;-77